x

West Santa Barbara 38 Nm West Of Santa Barbara, Ca (46054) Wave Buoy

6:50 - Fri 28th Nov 2014 All times are PST. -8 hours from GMT.

  • Sig Wave height 6.6ft
  • Swell Direction
  • Peak Period 13s
  • Average Period 8s
  • Wind
    18mph, 20mph gusts
  • Sea Temp 64°f
  • Aire Temp 63°f
  • Sea Pressure 1011.4mb
  • West Santa Barbara  38 Nm West Of Santa Barbara, Ca
  • West Santa Barbara  38 Nm West Of Santa Barbara, Ca

More Historic Weather Station data

Upgrade to MSW Pro to gain access to the past 30 days of data for over 8000 Wavebouys and Weather Stations around the globe.

Join Pro

Comparision Forecast

View Surf forecast
   
vie 11/28 6:50 6.5ft 13s 8s 18 20 mph 1011.4mb 64f 63f
5:50 7ft 14s 9s 18 22 mph 1011.2mb 64f 64f
4:50 7ft 14s 9s 16 20 mph 1011.3mb 64f 64f
3:50 7ft 15s 8s 18 22 mph 1011.4mb 64f 63f
2:50 8ft 15s 9s 16 20 mph 1011.9mb 64f 62f
1:50 7ft 14s 8s 20 25 mph 1012.2mb 64f 62f
12:50 7ft 15s 9s 16 20 mph 1013.1mb 64f 62f
11:50 5.5ft 14s 9s 16 18 mph 1014.2mb 64f 62f
10:50 6ft 14s 9s 13 16 mph 1014.9mb 64f 61f
9:50 6ft 15s 9s 9 11 mph 1015mb 64f 63f
8:50 6ft 14s 8s 13 16 mph 1014.9mb 64f 61f
7:50 6ft 15s 8s 16 18 mph 1014.5mb 64f 60f
6:50 6ft 15s 8s 18 20 mph 1014.2mb 64f 59f
5:50 6ft 15s 7s 18 20 mph 1013.9mb 64f 60f
4:50 5.5ft 16s 7s 18 20 mph 1013.9mb 64f 60f
3:50 5ft 15s 6s 18 22 mph 1014.2mb 64f 60f
2:50 4.5ft 15s 6s 22 25 mph 1014.5mb 64f 61f
1:50 4.5ft 15s 6s 18 20 mph 1014.8mb 64f 63f
12:50 4ft 15s 6s 16 20 mph 1015mb 64f 63f
jue 11/27 11:50 4.5ft 16s 6s 18 20 mph 1015.3mb 64f 63f
10:50 3.5ft 15s 6s 18 20 mph 1015.6mb 64f 63f
9:50 3ft 11s 5s 16 18 mph 1015.5mb 64f 64f
8:50 3.5ft 12s 5s 16 20 mph 1015.6mb 64f 64f
7:50 3.5ft 14s 5s 18 20 mph 1015.7mb 64f 64f
6:50 3.5ft 4s 5s 20 22 mph 1015.6mb 64f 64f
5:50 3.5ft 4s 5s 18 22 mph 1015.7mb 64f 64f
4:50 3.5ft 4s 5s 18 22 mph 1015.5mb 64f 64f
3:50 3ft 13s 5s 18 20 mph 1015.7mb 64f 64f
2:50 3ft 12s 5s 13 16 mph 1016mb 64f 64f
1:50 3ft 11s 6s 16 18 mph 1016.3mb 64f 63f
12:50 2.5ft 12s 6s 11 13 mph 1017.1mb 64f 64f
11:50 3ft 11s 7s 11 13 mph 1017.9mb 64f 64f
10:50 3ft 12s 6s 7 9 mph 1018.7mb 63f 64f
9:50 3.5ft 13s 6s 7
mph
1019.2mb 63f 64f
8:50 3ft 11s 6s 9
mph
1019.1mb 63f 64f
7:50 3ft 13s 6s 9 11 mph 1018.6mb 63f 63f
6:50 3.5ft 12s 7s 11 13 mph 1018.3mb 63f 63f
5:50 3ft 11s 6s 9
mph
1018mb 63f 64f
4:50 3.5ft 12s 6s 9
mph
1017.8mb 63f 64f
3:50 3.5ft 13s 6s 9 11 mph 1017.9mb 63f 63f
2:50 3.5ft 11s 6s 18 20 mph 1018.2mb 63f 63f
1:50 4ft 11s 7s 13 16 mph 1018.9mb 63f 64f
12:50 4.5ft 11s 7s 13 16 mph 1019.3mb 63f 64f
mié 11/26 11:50 4.5ft 12s 6s 13 16 mph 1019.8mb 63f 65f
10:50 5ft 11s 6s 18 20 mph 1019.7mb 62f 64f
9:50 5ft 12s 6s 22 25 mph 1019.9mb 62f 64f
8:50 4.5ft 12s 6s 20 25 mph 1019.9mb 63f 65f
7:50 4.5ft 12s 6s 20 22 mph 1019.9mb 63f 65f
6:50 4.5ft 12s 7s 16 20 mph 1019.8mb 63f 64f
5:50 4.5ft 13s 7s 13 16 mph 1019.9mb 63f 64f
4:50 4.5ft 11s 8s 13 16 mph 1020.2mb 64f 64f
3:50 5ft 13s 9s 11 13 mph 1020.5mb 64f 65f
2:50 5ft 12s 9s 4 7 mph 1020.4mb 64f 65f
1:50 5ft 13s 9s 4
mph
1020.6mb 64f 65f
12:50 5ft 13s 10s 4
mph
1021.1mb 64f 65f
11:50 4.5ft 13s 9s 4 7 mph 1022mb 63f 65f
10:50 5ft 13s 10s 7
mph
1022.9mb 63f 64f
9:50 4.5ft 12s 9s 7
mph
1023.4mb 63f 64f
8:50 5ft 13s 10s 7 9 mph 1023.2mb 63f 63f
7:50 4.5ft 14s 9s 4 7 mph 1023.2mb 63f 63f
6:50 5ft 14s 9s 7
mph
1022.8mb 63f 62f
5:50 5ft 14s 9s 2
mph
1022.6mb 63f 62f
4:50 5.5ft 13s 10s  -  2 mph 1022.3mb 63f 62f
3:50 5ft 14s 9s 2
mph
1022.5mb 63f 63f
2:50 5.5ft 14s 10s 4 7 mph 1022.9mb 63f 62f
1:50 6ft 13s 10s 7 9 mph 1023.5mb 63f 63f
12:50 6ft 12s 10s 7 9 mph 1023.6mb 63f 63f
mar 11/25 11:50 6ft 13s 9s 9 13 mph 1023.9mb 63f 64f
10:50 5ft 13s 9s 13 16 mph 1024.3mb 63f 65f
9:50 6ft 12s 9s 13 18 mph 1024.5mb 63f 65f
8:50 6ft 14s 9s 11 13 mph 1024.8mb 63f 65f
7:50 6ft 14s 9s 16 18 mph 1024.8mb 63f 65f
6:50 6.5ft 14s 10s 11 16 mph 1025mb 63f 64f
5:50 6ft 13s 10s 11 13 mph 1024.9mb 63f 64f
4:50 6ft 14s 9s 11 13 mph 1024.9mb 64f 64f
3:50 6.5ft 14s 9s 11 13 mph 1025.1mb 64f 64f
2:50 6.5ft 14s 9s 9
mph
1025.3mb 64f 64f
1:50 6.5ft 14s 9s 4 7 mph 1025.6mb 64f 66f
12:50 6ft 12s 9s  -  2 mph 1026.3mb 64f 66f
11:50 6ft 15s 10s 2 4 mph 1027mb 64f 66f
10:50 6.5ft 14s 9s 2 4 mph 1027.9mb 63f 65f
9:50 7ft 15s 10s 4 7 mph 1028.4mb 63f 64f
8:50 6.5ft 13s 10s 7 9 mph 1028.3mb 63f 65f
7:50 6ft 14s 9s 9 11 mph 1027.9mb 63f 64f
6:50 6.5ft 14s 9s 7 9 mph 1027.5mb 63f 63f
5:50 6ft 13s 9s 4 7 mph 1026.9mb 63f 63f
4:50 6ft 14s 9s 2 4 mph 1026.4mb 63f 63f